createdAt,value
2023-02-21T00:02:03.773Z,2.70
2023-02-21T00:04:49.250Z,2.65
2023-02-21T00:07:37.109Z,2.60
2023-02-21T00:10:22.937Z,2.60
2023-02-21T00:13:08.323Z,2.55
2023-02-21T00:15:54.652Z,2.58
2023-02-21T00:18:40.561Z,2.55
2023-02-21T00:21:26.057Z,2.90
2023-02-21T00:24:12.786Z,3.00
2023-02-21T00:26:58.650Z,3.40
2023-02-21T00:29:43.974Z,3.47
2023-02-21T00:32:29.397Z,3.40
2023-02-21T00:35:14.873Z,2.80
2023-02-21T00:38:00.273Z,3.08
2023-02-21T00:40:46.904Z,3.20
2023-02-21T00:43:33.507Z,3.20
2023-02-21T00:46:24.211Z,3.08
2023-02-21T00:49:09.790Z,3.47
2023-02-21T00:51:55.776Z,3.50
2023-02-21T00:54:41.690Z,3.30
2023-02-21T00:57:29.154Z,3.25
2023-02-21T01:00:14.593Z,3.67
2023-02-21T01:03:00.412Z,3.58
2023-02-21T01:05:46.334Z,3.78
2023-02-21T01:08:32.545Z,3.28
2023-02-21T01:11:18.159Z,3.45
2023-02-21T01:14:05.191Z,4.35
2023-02-21T01:16:54.159Z,3.47
2023-02-21T01:19:41.503Z,3.60
2023-02-21T01:22:27.291Z,4.00
2023-02-21T01:25:12.684Z,4.10
2023-02-21T01:27:57.882Z,3.65
2023-02-21T01:30:45.055Z,3.80
2023-02-21T01:33:31.749Z,3.40
2023-02-21T01:36:18.069Z,3.80
2023-02-21T01:39:03.419Z,3.30
2023-02-21T01:41:50.917Z,3.63
2023-02-21T01:44:55.769Z,4.10
2023-02-21T01:47:42.764Z,4.07
2023-02-21T01:50:33.317Z,4.38
2023-02-21T01:53:21.203Z,4.28
2023-02-21T01:56:07.785Z,4.03
2023-02-21T01:58:54.566Z,4.03
2023-02-21T02:01:51.855Z,4.13
2023-02-21T02:04:38.727Z,3.67
2023-02-21T02:07:24.605Z,4.57
2023-02-21T02:10:10.075Z,3.78
2023-02-21T02:12:55.072Z,4.13
2023-02-21T02:15:39.863Z,4.35
2023-02-21T02:18:25.256Z,4.47
2023-02-21T02:21:51.663Z,4.03
2023-02-21T02:24:38.314Z,4.25
2023-02-21T02:27:27.540Z,4.32
2023-02-21T02:29:55.599Z,4.15
2023-02-21T02:35:11.596Z,4.15
2023-02-21T02:37:48.307Z,4.00
2023-02-21T02:40:26.100Z,4.25
2023-02-21T02:43:05.065Z,4.85
2023-02-21T02:45:38.155Z,4.18
2023-02-21T02:50:57.320Z,3.78
2023-02-21T02:53:28.638Z,3.83
2023-02-21T02:55:59.399Z,4.10
2023-02-21T02:58:29.731Z,4.32
2023-02-21T03:01:09.583Z,4.18
2023-02-21T03:03:57.972Z,3.67
2023-02-21T03:06:35.034Z,4.05
2023-02-21T03:09:13.454Z,3.80
2023-02-21T03:11:52.372Z,4.30
2023-02-21T03:14:25.292Z,3.92
2023-02-21T03:16:57.750Z,4.30
2023-02-21T03:19:27.377Z,3.90
2023-02-21T03:21:59.841Z,3.90
2023-02-21T03:24:29.467Z,3.63
2023-02-21T03:27:01.542Z,4.15
2023-02-21T03:29:29.766Z,3.92
2023-02-21T03:32:10.763Z,3.80
2023-02-21T03:34:39.403Z,4.30
2023-02-21T03:37:10.870Z,4.10
2023-02-21T03:39:38.644Z,3.50
2023-02-21T03:42:06.996Z,4.00
2023-02-21T03:44:36.183Z,4.00
2023-02-21T03:47:06.929Z,4.10
2023-02-21T03:49:35.066Z,4.43
2023-02-21T03:52:02.967Z,4.13
2023-02-21T03:54:32.134Z,5.00
2023-02-21T03:56:59.928Z,4.63
2023-02-21T03:59:27.709Z,4.35
2023-02-21T04:01:55.538Z,4.35
2023-02-21T04:04:23.625Z,4.50
2023-02-21T04:06:51.442Z,4.60
2023-02-21T04:09:19.334Z,4.28
2023-02-21T04:11:49.531Z,4.55
2023-02-21T04:14:17.557Z,4.40
2023-02-21T04:16:45.466Z,4.30
2023-02-21T04:19:13.290Z,4.43
2023-02-21T04:21:41.028Z,4.45
2023-02-21T04:24:09.033Z,3.45
2023-02-21T04:26:36.859Z,3.97
2023-02-21T04:29:06.845Z,3.95
2023-02-21T04:31:34.948Z,4.20
2023-02-21T04:34:11.758Z,4.05
2023-02-21T04:36:40.344Z,4.03
2023-02-21T04:39:08.921Z,3.75
2023-02-21T04:41:36.771Z,3.67
2023-02-21T04:44:09.086Z,3.50
2023-02-21T04:46:39.874Z,3.70
2023-02-21T04:49:07.659Z,3.92
2023-02-21T04:51:35.451Z,3.88
2023-02-21T04:54:03.217Z,3.90
2023-02-21T04:56:32.654Z,3.83
2023-02-21T04:59:00.931Z,3.90
2023-02-21T05:01:31.765Z,3.72
2023-02-21T05:03:59.823Z,3.83
2023-02-21T05:06:28.941Z,3.80
2023-02-21T05:08:56.860Z,3.42
2023-02-21T05:11:25.532Z,3.80
2023-02-21T05:13:53.716Z,3.47
2023-02-21T05:16:22.256Z,3.53
2023-02-21T05:18:51.422Z,3.72
2023-02-21T05:21:20.787Z,3.70
2023-02-21T05:23:55.995Z,3.83
2023-02-21T05:26:26.857Z,3.88
2023-02-21T05:28:54.800Z,3.58
2023-02-21T05:31:22.727Z,3.92
2023-02-21T05:33:51.932Z,3.58
2023-02-21T05:36:19.783Z,3.95
2023-02-21T05:38:48.833Z,3.40
2023-02-21T05:41:17.271Z,3.30
2023-02-21T05:43:46.280Z,3.58
2023-02-21T05:46:20.643Z,3.28
2023-02-21T05:48:48.515Z,3.85
2023-02-21T05:51:18.208Z,3.75
2023-02-21T05:53:46.100Z,4.10
2023-02-21T05:56:14.783Z,4.07
2023-02-21T05:58:42.664Z,3.85
2023-02-21T06:01:10.559Z,4.30
2023-02-21T06:03:38.886Z,4.30
2023-02-21T06:06:07.160Z,4.15
2023-02-21T06:08:43.761Z,4.25
2023-02-21T06:11:11.653Z,4.45
2023-02-21T06:13:39.473Z,4.28
2023-02-21T06:16:07.890Z,4.25
2023-02-21T06:18:35.847Z,4.28
2023-02-21T06:21:03.626Z,4.47
2023-02-21T06:23:31.502Z,4.28
2023-02-21T06:26:01.034Z,4.50
2023-02-21T06:28:30.262Z,4.38
2023-02-21T06:30:59.192Z,4.05
2023-02-21T06:33:27.083Z,4.85
2023-02-21T06:35:54.809Z,4.22
2023-02-21T06:38:22.882Z,4.07
2023-02-21T06:40:51.052Z,4.43
2023-02-21T06:43:22.470Z,4.70
2023-02-21T06:45:51.271Z,4.65
2023-02-21T06:48:19.405Z,5.00
2023-02-21T06:50:47.157Z,5.40
2023-02-21T06:53:15.289Z,4.88
2023-02-21T06:55:43.207Z,4.50
2023-02-21T06:58:11.022Z,5.13
2023-02-21T07:00:40.256Z,5.40
2023-02-21T07:03:08.566Z,5.68
2023-02-21T07:05:38.525Z,5.93
2023-02-21T07:08:06.709Z,6.30
2023-02-21T07:10:34.496Z,6.07
2023-02-21T07:13:02.398Z,5.97
2023-02-21T07:15:30.287Z,6.22
2023-02-21T07:17:59.522Z,5.95
2023-02-21T07:20:27.539Z,5.72
2023-02-21T07:22:55.368Z,6.03
2023-02-21T07:25:24.089Z,6.07
2023-02-21T07:27:52.794Z,6.22
2023-02-21T07:30:20.914Z,7.03
2023-02-21T07:32:48.835Z,6.15
2023-02-21T07:35:18.127Z,6.60
2023-02-21T07:37:45.903Z,5.78
2023-02-21T07:40:13.900Z,6.00
2023-02-21T07:42:43.827Z,6.00
2023-02-21T07:45:15.811Z,5.55
2023-02-21T07:47:47.905Z,5.68
2023-02-21T07:50:18.124Z,6.13
2023-02-21T07:52:47.975Z,6.22
2023-02-21T07:55:15.835Z,5.75
2023-02-21T07:57:43.634Z,6.05
2023-02-21T08:00:12.211Z,6.60
2023-02-21T08:02:40.025Z,6.22
2023-02-21T08:05:09.035Z,5.80
2023-02-21T08:07:37.090Z,6.00
2023-02-21T08:10:06.893Z,6.20
2023-02-21T08:12:34.650Z,5.47
2023-02-21T08:15:02.454Z,5.45
2023-02-21T08:17:30.366Z,5.95
2023-02-21T08:19:58.300Z,5.32
2023-02-21T08:22:26.130Z,5.75
2023-02-21T08:24:53.858Z,5.65
2023-02-21T08:27:23.048Z,5.72
2023-02-21T08:29:51.916Z,5.82
2023-02-21T08:32:20.166Z,5.32
2023-02-21T08:34:49.090Z,5.25
2023-02-21T08:37:19.915Z,5.22
2023-02-21T08:39:48.227Z,4.72
2023-02-21T08:42:16.065Z,5.00
2023-02-21T08:44:47.112Z,5.22
2023-02-21T08:47:16.824Z,4.50
2023-02-21T08:49:47.634Z,4.53
2023-02-21T08:52:17.547Z,4.88
2023-02-21T08:54:46.166Z,5.35
2023-02-21T08:57:14.689Z,4.75
2023-02-21T08:59:45.107Z,4.85
2023-02-21T09:02:18.513Z,5.10
2023-02-21T09:04:47.799Z,4.72
2023-02-21T09:07:17.364Z,4.65
2023-02-21T09:09:45.383Z,4.80
2023-02-21T09:12:13.602Z,4.75
2023-02-21T09:14:43.266Z,5.18
2023-02-21T09:17:14.087Z,4.88
2023-02-21T09:19:44.725Z,5.35
2023-02-21T09:22:12.706Z,5.50
2023-02-21T09:24:40.592Z,5.40
2023-02-21T09:27:08.512Z,5.00
2023-02-21T09:29:45.990Z,4.93
2023-02-21T09:32:15.050Z,5.15
2023-02-21T09:34:44.661Z,6.10
2023-02-21T09:37:12.465Z,5.25
2023-02-21T09:39:40.389Z,6.00
2023-02-21T09:42:08.374Z,5.70
2023-02-21T09:44:36.631Z,5.75
2023-02-21T09:47:07.177Z,5.38
2023-02-21T09:49:38.460Z,4.88
2023-02-21T09:52:14.334Z,5.95
2023-02-21T09:54:46.644Z,5.93
2023-02-21T09:57:16.780Z,5.28
2023-02-21T09:59:44.604Z,5.70
2023-02-21T10:02:28.351Z,5.70
2023-02-21T10:05:07.339Z,5.40
2023-02-21T10:07:45.249Z,5.63
2023-02-21T10:10:18.129Z,5.65
2023-02-21T10:12:52.787Z,5.30
2023-02-21T10:15:37.157Z,5.43
2023-02-21T10:18:12.454Z,4.78
2023-02-21T10:20:45.210Z,4.57
2023-02-21T10:23:17.894Z,4.95
2023-02-21T10:25:47.663Z,5.22
2023-02-21T10:28:20.365Z,4.18
2023-02-21T10:30:50.666Z,4.53
2023-02-21T10:33:19.052Z,4.85
2023-02-21T10:35:46.916Z,4.93
2023-02-21T10:38:19.930Z,4.90
2023-02-21T10:40:52.082Z,4.80
2023-02-21T10:43:24.529Z,4.53
2023-02-21T10:46:00.764Z,4.78
2023-02-21T10:48:33.830Z,4.43
2023-02-21T10:51:10.673Z,4.28
2023-02-21T10:53:41.114Z,4.47
2023-02-21T10:56:23.175Z,4.35
2023-02-21T10:58:53.455Z,4.47
2023-02-21T11:01:31.691Z,4.35
2023-02-21T11:04:02.608Z,4.35
2023-02-21T11:06:35.643Z,4.25
2023-02-21T11:09:30.275Z,4.43
2023-02-21T11:12:03.197Z,4.15
2023-02-21T11:14:32.094Z,4.90
2023-02-21T11:17:17.356Z,4.47
2023-02-21T11:19:50.480Z,4.50
2023-02-21T11:22:21.794Z,4.85
2023-02-21T11:25:13.639Z,4.32
2023-02-21T11:27:41.565Z,4.30
2023-02-21T11:30:16.911Z,4.50
2023-02-21T11:32:51.352Z,4.10
2023-02-21T11:35:26.630Z,3.92
2023-02-21T11:37:56.762Z,4.50
2023-02-21T11:40:35.539Z,4.10
2023-02-21T11:43:18.146Z,4.03
2023-02-21T11:45:59.789Z,3.90
2023-02-21T11:48:32.961Z,4.13
2023-02-21T11:51:07.402Z,3.97
2023-02-21T11:53:40.648Z,4.50
2023-02-21T11:56:19.758Z,4.10
2023-02-21T11:58:59.307Z,4.13
2023-02-21T12:01:31.919Z,3.92
2023-02-21T12:04:29.405Z,4.07
2023-02-21T12:07:05.868Z,3.83
2023-02-21T12:09:43.017Z,4.03
2023-02-21T12:12:23.960Z,4.20
2023-02-21T12:15:02.226Z,3.95
2023-02-21T12:18:02.119Z,4.30
2023-02-21T12:20:46.374Z,4.55
2023-02-21T12:23:19.891Z,4.55
2023-02-21T12:26:07.265Z,5.07
2023-02-21T12:28:52.130Z,5.35
2023-02-21T12:31:31.653Z,4.85
2023-02-21T12:34:15.269Z,4.68
2023-02-21T12:36:59.281Z,4.93
2023-02-21T12:39:50.904Z,5.00
2023-02-21T12:42:37.052Z,5.10
2023-02-21T12:45:24.621Z,7.85
2023-02-21T12:47:58.074Z,4.80
2023-02-21T12:50:33.289Z,4.72
2023-02-21T12:53:07.653Z,4.95
2023-02-21T12:55:40.602Z,4.63
2023-02-21T12:58:15.926Z,4.55
2023-02-21T13:00:50.891Z,4.60
2023-02-21T13:03:36.084Z,4.18
2023-02-21T13:06:07.856Z,4.80
2023-02-21T13:08:46.653Z,4.53
2023-02-21T13:11:19.901Z,5.20
2023-02-21T13:13:47.714Z,5.10
2023-02-21T13:16:18.813Z,5.07
2023-02-21T13:18:53.821Z,4.65
2023-02-21T13:21:32.850Z,4.82
2023-02-21T13:24:04.253Z,4.95
2023-02-21T13:26:48.127Z,5.03
2023-02-21T13:29:22.082Z,5.03
2023-02-21T13:32:00.496Z,5.28
2023-02-21T13:34:36.252Z,5.43
2023-02-21T13:37:07.440Z,5.13
2023-02-21T13:39:37.589Z,5.40
2023-02-21T13:42:09.559Z,4.97
2023-02-21T13:44:41.374Z,5.25
2023-02-21T13:47:21.062Z,4.63
2023-02-21T13:49:52.233Z,4.68
2023-02-21T13:52:30.025Z,5.22
2023-02-21T13:55:36.207Z,4.57
2023-02-21T13:58:32.450Z,4.97
2023-02-21T14:01:17.858Z,4.55
2023-02-21T14:03:47.051Z,5.13
2023-02-21T14:06:31.562Z,5.00
2023-02-21T14:09:03.297Z,5.18
2023-02-21T14:11:37.882Z,5.95
2023-02-21T14:14:24.598Z,4.82
2023-02-21T14:17:00.247Z,4.85
2023-02-21T14:19:36.781Z,5.00
2023-02-21T14:22:11.212Z,4.85
2023-02-21T14:24:42.796Z,5.20
2023-02-21T14:27:32.936Z,5.35
2023-02-21T14:30:28.420Z,5.20
2023-02-21T14:33:08.004Z,5.55
2023-02-21T14:35:46.568Z,5.00
2023-02-21T14:38:21.848Z,5.85
2023-02-21T14:41:03.778Z,5.90
2023-02-21T14:44:04.489Z,6.00
2023-02-21T14:47:09.032Z,6.55
2023-02-21T14:50:08.124Z,6.35
2023-02-21T14:52:55.799Z,6.30
2023-02-21T14:55:37.727Z,6.00
2023-02-21T14:58:40.026Z,5.63
2023-02-21T15:01:16.274Z,5.80
2023-02-21T15:03:49.386Z,5.65
2023-02-21T15:06:21.709Z,6.00
2023-02-21T15:08:53.205Z,6.00
2023-02-21T15:11:27.447Z,6.22
2023-02-21T15:14:22.615Z,6.22
2023-02-21T15:16:53.916Z,6.43
2023-02-21T15:19:28.989Z,6.60
2023-02-21T15:22:30.002Z,6.70
2023-02-21T15:25:15.107Z,6.72
2023-02-21T15:28:01.404Z,6.85
2023-02-21T15:30:33.827Z,6.45
2023-02-21T15:33:08.648Z,6.55
2023-02-21T15:35:39.867Z,6.40
2023-02-21T15:38:15.202Z,6.32
2023-02-21T15:40:45.007Z,7.22
2023-02-21T15:43:28.569Z,6.63
2023-02-21T15:45:59.001Z,6.72
2023-02-21T15:48:28.304Z,7.25
2023-02-21T15:51:04.048Z,7.05
2023-02-21T15:53:33.410Z,7.63
2023-02-21T15:56:22.477Z,6.95
2023-02-21T15:59:13.439Z,6.72
2023-02-21T16:01:42.042Z,6.78
2023-02-21T16:04:22.145Z,7.25
2023-02-21T16:06:54.632Z,7.60
2023-02-21T16:09:28.006Z,7.50
2023-02-21T16:12:00.855Z,7.20
2023-02-21T16:14:39.550Z,7.68
2023-02-21T16:17:17.863Z,8.70
2023-02-21T16:19:48.265Z,8.70
2023-02-21T16:22:34.151Z,9.30
2023-02-21T16:25:13.913Z,7.95
2023-02-21T16:27:45.189Z,7.93
2023-02-21T16:30:16.474Z,8.10
2023-02-21T16:32:47.120Z,7.60
2023-02-21T16:35:20.752Z,7.60
2023-02-21T16:37:50.470Z,7.50
2023-02-21T16:40:24.911Z,7.90
2023-02-21T16:42:55.700Z,7.78
2023-02-21T16:45:24.329Z,7.78
2023-02-21T16:47:57.693Z,8.60
2023-02-21T16:50:30.101Z,7.80
2023-02-21T16:53:01.340Z,7.55
2023-02-21T16:55:30.218Z,7.57
2023-02-21T16:58:05.811Z,7.53
2023-02-21T17:00:34.515Z,7.97
2023-02-21T17:03:03.076Z,7.75
2023-02-21T17:05:30.865Z,8.40
2023-02-21T17:07:59.098Z,7.35
2023-02-21T17:10:27.344Z,7.15
2023-02-21T17:12:55.269Z,7.65
2023-02-21T17:15:25.152Z,7.55
2023-02-21T17:17:54.025Z,10.88
2023-02-21T17:20:23.807Z,8.20
2023-02-21T17:22:52.349Z,7.40
2023-02-21T17:25:21.290Z,8.18
2023-02-21T17:27:49.838Z,7.43
2023-02-21T17:30:19.664Z,7.40
2023-02-21T17:32:48.953Z,8.45
2023-02-21T17:35:19.348Z,8.02
2023-02-21T17:37:49.703Z,7.57
2023-02-21T17:40:18.793Z,7.65
2023-02-21T17:42:46.818Z,7.60
2023-02-21T17:45:18.500Z,7.28
2023-02-21T17:47:46.439Z,7.35
2023-02-21T17:50:17.809Z,7.72
2023-02-21T17:52:45.744Z,7.70
2023-02-21T17:55:19.589Z,8.15
2023-02-21T17:57:50.436Z,8.35
2023-02-21T18:00:23.224Z,7.95
2023-02-21T18:02:51.696Z,8.32
2023-02-21T18:05:21.495Z,8.27
2023-02-21T18:07:50.080Z,8.65
2023-02-21T18:10:19.674Z,8.93
2023-02-21T18:12:50.507Z,8.57
2023-02-21T18:15:20.194Z,7.80
2023-02-21T18:17:47.998Z,8.68
2023-02-21T18:20:16.417Z,7.57
2023-02-21T18:22:46.138Z,8.15
2023-02-21T18:25:16.076Z,7.97
2023-02-21T18:27:43.942Z,8.73
2023-02-21T18:30:12.454Z,8.30
2023-02-21T18:32:40.260Z,9.25
2023-02-21T18:35:08.247Z,8.70
2023-02-21T18:37:36.474Z,8.50
2023-02-21T18:40:07.011Z,8.88
2023-02-21T18:42:34.852Z,8.45
2023-02-21T18:45:02.609Z,8.32
2023-02-21T18:47:34.490Z,8.20
2023-02-21T18:50:03.236Z,9.15
2023-02-21T18:52:31.383Z,8.32
2023-02-21T18:55:03.725Z,9.10
2023-02-21T18:57:34.227Z,8.27
2023-02-21T19:00:02.195Z,9.18
2023-02-21T19:02:30.065Z,8.82
2023-02-21T19:04:57.971Z,7.68
2023-02-21T19:07:25.742Z,8.63
2023-02-21T19:09:54.584Z,8.45
2023-02-21T19:12:22.415Z,8.52
2023-02-21T19:14:51.515Z,8.98
2023-02-21T19:17:19.459Z,8.75
2023-02-21T19:19:47.256Z,9.23
2023-02-21T19:22:14.976Z,8.60
2023-02-21T19:24:42.919Z,8.63
2023-02-21T19:27:10.977Z,8.20
2023-02-21T19:29:38.761Z,7.78
2023-02-21T19:32:08.205Z,8.65
2023-02-21T19:34:36.567Z,8.07
2023-02-21T19:37:04.392Z,7.57
2023-02-21T19:39:32.248Z,7.30
2023-02-21T19:42:00.045Z,7.30
2023-02-21T19:44:28.146Z,8.20
2023-02-21T19:47:02.028Z,7.95
2023-02-21T19:49:31.332Z,7.43
2023-02-21T19:52:00.463Z,7.78
2023-02-21T19:54:29.993Z,8.10
2023-02-21T19:57:00.399Z,7.03
2023-02-21T19:59:29.274Z,8.25
2023-02-21T20:01:57.274Z,8.32
2023-02-21T20:04:25.505Z,6.75
2023-02-21T20:06:54.656Z,8.88
2023-02-21T20:09:22.502Z,9.07
2023-02-21T20:11:50.297Z,8.05
2023-02-21T20:14:19.008Z,7.53
2023-02-21T20:16:47.469Z,7.80
2023-02-21T20:19:15.824Z,8.25
2023-02-21T20:21:43.603Z,8.77
2023-02-21T20:24:13.076Z,8.68
2023-02-21T20:26:40.936Z,8.35
2023-02-21T20:29:08.864Z,8.93
2023-02-21T20:31:38.631Z,7.97
2023-02-21T20:34:07.052Z,7.80
2023-02-21T20:36:37.940Z,8.07
2023-02-21T20:39:06.477Z,7.88
2023-02-21T20:41:39.038Z,7.95
2023-02-21T20:44:07.092Z,8.48
2023-02-21T20:46:35.029Z,9.27
2023-02-21T20:49:03.637Z,9.43
2023-02-21T20:51:35.393Z,11.30
2023-02-21T20:54:04.871Z,15.20
2023-02-21T20:56:35.505Z,9.70
2023-02-21T20:59:04.859Z,8.38
2023-02-21T21:01:35.140Z,9.60
2023-02-21T21:04:05.070Z,10.00
2023-02-21T21:06:32.931Z,9.35
2023-02-21T21:09:01.739Z,8.10
2023-02-21T21:11:29.807Z,7.72
2023-02-21T21:13:58.979Z,7.55
2023-02-21T21:16:27.082Z,6.95
2023-02-21T21:18:57.347Z,7.35
2023-02-21T21:21:29.276Z,7.68
2023-02-21T21:23:57.133Z,6.78
2023-02-21T21:26:25.606Z,6.75
2023-02-21T21:28:53.581Z,6.70
2023-02-21T21:31:23.622Z,6.95
2023-02-21T21:33:51.510Z,6.57
2023-02-21T21:36:19.470Z,6.70
2023-02-21T21:38:47.388Z,7.40
2023-02-21T21:41:16.125Z,7.05
2023-02-21T21:43:46.632Z,7.78
2023-02-21T21:46:15.224Z,6.53
2023-02-21T21:48:46.615Z,6.43
2023-02-21T21:51:15.381Z,6.25
2023-02-21T21:53:43.711Z,6.88
2023-02-21T21:56:11.511Z,6.30
2023-02-21T21:58:39.502Z,6.40
2023-02-21T22:01:07.485Z,6.88
2023-02-21T22:03:35.668Z,6.18
2023-02-21T22:06:05.172Z,6.60
2023-02-21T22:08:32.968Z,6.35
2023-02-21T22:11:01.015Z,6.53
2023-02-21T22:13:30.149Z,6.40
2023-02-21T22:15:58.123Z,6.18
2023-02-21T22:18:26.109Z,6.13
2023-02-21T22:20:53.955Z,6.25
2023-02-21T22:23:24.791Z,5.45
2023-02-21T22:25:53.116Z,6.30
2023-02-21T22:28:21.177Z,6.10
2023-02-21T22:30:48.934Z,5.85
2023-02-21T22:33:20.508Z,5.68
2023-02-21T22:35:48.343Z,5.57
2023-02-21T22:38:17.483Z,5.40
2023-02-21T22:40:47.044Z,5.75
2023-02-21T22:43:15.077Z,5.38
2023-02-21T22:45:49.807Z,5.85
2023-02-21T22:48:20.890Z,5.65
2023-02-21T22:50:49.760Z,5.03
2023-02-21T22:53:19.699Z,5.80
2023-02-21T22:55:51.769Z,5.53
2023-02-21T22:58:21.052Z,5.47
2023-02-21T23:00:50.182Z,5.32
2023-02-21T23:03:18.238Z,5.00
2023-02-21T23:05:47.701Z,5.13
2023-02-21T23:08:17.732Z,5.18
2023-02-21T23:10:45.955Z,4.95
2023-02-21T23:13:18.348Z,5.13
2023-02-21T23:15:47.047Z,5.25
2023-02-21T23:18:20.585Z,5.13
2023-02-21T23:20:52.492Z,5.15
2023-02-21T23:23:21.054Z,5.38
2023-02-21T23:25:48.989Z,5.38
2023-02-21T23:28:18.516Z,5.13
2023-02-21T23:30:48.960Z,5.15
2023-02-21T23:33:18.887Z,5.10
2023-02-21T23:35:49.403Z,5.50
2023-02-21T23:38:20.959Z,5.18
2023-02-21T23:40:56.011Z,4.80
2023-02-21T23:43:29.454Z,4.55
2023-02-21T23:45:58.480Z,4.90
2023-02-21T23:48:29.551Z,5.35
2023-02-21T23:50:57.770Z,5.47
2023-02-21T23:53:27.885Z,5.82
2023-02-21T23:56:00.505Z,4.78
2023-02-21T23:58:32.444Z,5.22
